createdAt,value
2023-05-16T00:00:17.186Z,10.90
2023-05-16T00:02:46.392Z,11.00
2023-05-16T00:05:14.531Z,11.00
2023-05-16T00:07:44.755Z,11.00
2023-05-16T00:10:13.063Z,11.00
2023-05-16T00:12:41.639Z,11.00
2023-05-16T00:15:13.918Z,11.00
2023-05-16T00:17:43.664Z,11.00
2023-05-16T00:20:14.107Z,11.00
2023-05-16T00:22:42.544Z,10.90
2023-05-16T00:25:11.054Z,10.80
2023-05-16T00:27:38.793Z,10.60
2023-05-16T00:30:07.724Z,10.40
2023-05-16T00:32:36.135Z,10.30
2023-05-16T00:35:04.435Z,10.20
2023-05-16T00:37:33.758Z,10.20
2023-05-16T00:40:01.529Z,10.10
2023-05-16T00:42:29.362Z,10.10
2023-05-16T00:44:57.150Z,10.10
2023-05-16T00:47:24.915Z,10.10
2023-05-16T00:49:52.903Z,10.10
2023-05-16T00:52:20.793Z,10.10
2023-05-16T00:54:50.368Z,10.00
2023-05-16T00:57:18.561Z,10.00
2023-05-16T00:59:47.357Z,10.10
2023-05-16T01:02:15.828Z,10.00
2023-05-16T01:04:44.466Z,10.00
2023-05-16T01:07:12.416Z,10.00
2023-05-16T01:09:40.380Z,10.00
2023-05-16T01:12:16.816Z,10.00
2023-05-16T01:14:52.758Z,9.90
2023-05-16T01:17:24.718Z,10.00
2023-05-16T01:20:04.730Z,10.00
2023-05-16T01:22:47.625Z,10.00
2023-05-16T01:25:28.010Z,10.00
2023-05-16T01:27:59.882Z,10.00
2023-05-16T01:30:27.656Z,10.10
2023-05-16T01:32:55.441Z,10.10
2023-05-16T01:35:23.360Z,10.10
2023-05-16T01:37:57.453Z,10.10
2023-05-16T01:40:46.608Z,10.10
2023-05-16T01:43:24.389Z,10.20
2023-05-16T01:46:08.106Z,10.20
2023-05-16T01:48:44.251Z,10.20
2023-05-16T01:51:13.759Z,10.30
2023-05-16T01:53:42.336Z,10.40
2023-05-16T01:56:16.580Z,10.40
2023-05-16T01:58:47.064Z,10.40
2023-05-16T02:01:15.002Z,10.30
2023-05-16T02:03:42.813Z,10.20
2023-05-16T02:06:10.623Z,10.10
2023-05-16T02:08:38.459Z,10.00
2023-05-16T02:11:06.245Z,10.00
2023-05-16T02:13:33.986Z,9.90
2023-05-16T02:16:04.025Z,9.90
2023-05-16T02:18:31.972Z,9.80
2023-05-16T02:20:59.938Z,9.80
2023-05-16T02:23:27.733Z,9.80
2023-05-16T02:25:55.555Z,9.80
2023-05-16T02:28:23.325Z,9.70
2023-05-16T02:30:58.107Z,9.70
2023-05-16T02:33:27.818Z,9.70
2023-05-16T02:35:55.836Z,9.70
2023-05-16T02:38:23.624Z,9.80
2023-05-16T02:40:51.589Z,9.80
2023-05-16T02:43:19.397Z,9.90
2023-05-16T02:45:47.227Z,9.90
2023-05-16T02:48:15.044Z,9.90
2023-05-16T02:50:44.240Z,9.90
2023-05-16T02:53:12.181Z,9.80
2023-05-16T02:55:40.114Z,9.80
2023-05-16T02:58:08.154Z,9.80
2023-05-16T03:00:35.967Z,9.80
2023-05-16T03:03:04.801Z,9.70
2023-05-16T03:05:32.798Z,9.70
2023-05-16T03:08:02.176Z,9.60
2023-05-16T03:10:29.934Z,9.50
2023-05-16T03:12:57.728Z,9.40
2023-05-16T03:15:25.969Z,9.30
2023-05-16T03:17:53.844Z,9.30
2023-05-16T03:20:22.602Z,9.30
2023-05-16T03:22:50.373Z,9.20
2023-05-16T03:25:19.525Z,9.30
2023-05-16T03:27:47.301Z,9.20
2023-05-16T03:30:15.581Z,9.20
2023-05-16T03:32:43.389Z,9.20
2023-05-16T03:35:11.903Z,9.30
2023-05-16T03:37:40.196Z,9.30
2023-05-16T03:40:09.746Z,9.30
2023-05-16T03:42:38.860Z,9.30
2023-05-16T03:45:08.127Z,9.40
2023-05-16T03:47:36.015Z,9.50
2023-05-16T03:50:04.249Z,9.60
2023-05-16T03:52:32.092Z,9.70
2023-05-16T03:54:59.898Z,9.70
2023-05-16T03:57:27.645Z,9.80
2023-05-16T03:59:56.730Z,9.80
2023-05-16T04:02:24.626Z,9.90
2023-05-16T04:04:52.587Z,9.90
2023-05-16T04:07:22.592Z,10.00
2023-05-16T04:09:52.453Z,10.10
2023-05-16T04:12:20.211Z,10.10
2023-05-16T04:14:47.974Z,10.30
2023-05-16T04:17:17.092Z,10.30
2023-05-16T04:19:45.218Z,10.30
2023-05-16T04:22:13.052Z,10.40
2023-05-16T04:24:40.941Z,10.40
2023-05-16T04:27:09.409Z,10.50
2023-05-16T04:29:37.345Z,10.50
2023-05-16T04:32:07.502Z,10.50
2023-05-16T04:34:39.683Z,10.50
2023-05-16T04:37:09.390Z,10.50
2023-05-16T04:39:37.806Z,10.60
2023-05-16T04:42:06.696Z,10.60
2023-05-16T04:44:34.609Z,10.60
2023-05-16T04:47:02.627Z,10.60
2023-05-16T04:49:30.419Z,10.60
2023-05-16T04:51:59.572Z,10.70
2023-05-16T04:54:27.354Z,10.70
2023-05-16T04:56:55.119Z,10.70
2023-05-16T04:59:22.950Z,10.80
2023-05-16T05:01:50.792Z,10.80
2023-05-16T05:04:18.682Z,10.80
2023-05-16T05:06:46.428Z,10.80
2023-05-16T05:09:15.496Z,10.90
2023-05-16T05:11:43.243Z,10.90
2023-05-16T05:14:11.052Z,11.00
2023-05-16T05:16:38.979Z,11.00
2023-05-16T05:19:06.793Z,11.10
2023-05-16T05:21:34.537Z,11.20
2023-05-16T05:24:02.263Z,11.20
2023-05-16T05:26:31.398Z,11.20
2023-05-16T05:29:05.468Z,11.20
2023-05-16T05:31:34.970Z,11.30
2023-05-16T05:34:04.053Z,11.30
2023-05-16T05:36:31.897Z,11.40
2023-05-16T05:38:59.654Z,11.40
2023-05-16T05:41:27.655Z,11.50
2023-05-16T05:43:56.753Z,11.60
2023-05-16T05:46:25.864Z,11.70
2023-05-16T05:48:53.772Z,11.80
2023-05-16T05:51:21.827Z,11.80
2023-05-16T05:53:49.931Z,11.90
2023-05-16T05:56:17.677Z,12.00
2023-05-16T05:58:45.780Z,12.10
2023-05-16T06:01:15.002Z,12.10
2023-05-16T06:03:42.751Z,12.20
2023-05-16T06:06:10.912Z,12.30
2023-05-16T06:08:38.665Z,12.30
2023-05-16T06:11:06.550Z,12.40
2023-05-16T06:13:34.328Z,12.50
2023-05-16T06:16:02.164Z,12.50
2023-05-16T06:18:31.335Z,12.50
2023-05-16T06:20:59.109Z,12.50
2023-05-16T06:23:27.135Z,12.60
2023-05-16T06:25:54.910Z,12.60
2023-05-16T06:28:23.810Z,12.70
2023-05-16T06:30:52.017Z,12.80
2023-05-16T06:33:20.041Z,12.80
2023-05-16T06:35:49.560Z,12.80
2023-05-16T06:38:17.483Z,12.90
2023-05-16T06:40:45.336Z,13.00
2023-05-16T06:43:13.142Z,13.00
2023-05-16T06:45:41.121Z,13.20
2023-05-16T06:48:09.290Z,13.30
2023-05-16T06:50:37.220Z,13.40
2023-05-16T06:53:07.294Z,13.60
2023-05-16T06:55:35.682Z,13.70
2023-05-16T06:58:03.463Z,13.90
2023-05-16T07:00:31.246Z,14.00
2023-05-16T07:02:59.114Z,14.10
2023-05-16T07:05:27.117Z,14.30
2023-05-16T07:07:55.034Z,14.50
2023-05-16T07:10:24.475Z,14.50
2023-05-16T07:12:53.959Z,14.70
2023-05-16T07:15:21.757Z,14.80
2023-05-16T07:17:50.815Z,14.90
2023-05-16T07:20:18.766Z,15.10
2023-05-16T07:22:46.566Z,15.10
2023-05-16T07:25:18.569Z,15.10
2023-05-16T07:27:47.688Z,15.20
2023-05-16T07:30:15.958Z,15.20
2023-05-16T07:32:44.168Z,15.20
2023-05-16T07:35:13.152Z,15.40
2023-05-16T07:37:42.522Z,15.50
2023-05-16T07:40:11.323Z,15.60
2023-05-16T07:42:39.218Z,15.70
2023-05-16T07:45:09.290Z,15.70
2023-05-16T07:47:37.254Z,15.70
2023-05-16T07:50:05.607Z,15.80
2023-05-16T07:52:33.404Z,15.90
2023-05-16T07:55:01.237Z,16.00
2023-05-16T07:57:29.588Z,16.10
2023-05-16T07:59:57.481Z,16.30
2023-05-16T08:02:30.736Z,16.50
2023-05-16T08:04:58.992Z,16.60
2023-05-16T08:07:26.935Z,16.90
2023-05-16T08:09:54.717Z,17.10
2023-05-16T08:12:22.581Z,17.20
2023-05-16T08:14:50.437Z,17.20
2023-05-16T08:17:18.255Z,17.30
2023-05-16T08:19:47.414Z,17.60
2023-05-16T08:22:15.272Z,17.80
2023-05-16T08:24:43.042Z,18.00
2023-05-16T08:27:11.988Z,18.00
2023-05-16T08:29:39.804Z,18.20
2023-05-16T08:32:09.530Z,18.50
2023-05-16T08:34:37.635Z,18.70
2023-05-16T08:37:06.840Z,18.90
2023-05-16T08:39:34.767Z,19.00
2023-05-16T08:42:02.609Z,19.10
2023-05-16T08:44:30.445Z,19.00
2023-05-16T08:47:00.454Z,19.00
2023-05-16T08:49:29.915Z,19.00
2023-05-16T08:51:59.224Z,19.10
2023-05-16T08:54:28.678Z,19.00
2023-05-16T08:56:58.802Z,19.00
2023-05-16T08:59:26.806Z,19.00
2023-05-16T09:01:54.687Z,19.00
2023-05-16T09:04:25.350Z,19.00
2023-05-16T09:06:53.469Z,18.90
2023-05-16T09:09:21.281Z,18.80
2023-05-16T09:11:50.485Z,18.80
2023-05-16T09:14:18.330Z,18.70
2023-05-16T09:16:46.655Z,18.40
2023-05-16T09:19:15.034Z,18.10
2023-05-16T09:21:43.371Z,18.10
2023-05-16T09:24:11.314Z,18.10
2023-05-16T09:26:40.587Z,18.10
2023-05-16T09:29:13.962Z,18.20
2023-05-16T09:31:42.008Z,18.40
2023-05-16T09:34:11.246Z,18.70
2023-05-16T09:36:40.167Z,18.60
2023-05-16T09:39:09.315Z,18.60
2023-05-16T09:41:37.376Z,18.50
2023-05-16T09:44:05.919Z,18.30
2023-05-16T09:46:38.267Z,18.10
2023-05-16T09:49:06.219Z,18.10
2023-05-16T09:51:34.471Z,18.10
2023-05-16T09:54:02.325Z,18.00
2023-05-16T09:56:30.648Z,17.90
2023-05-16T09:58:58.485Z,17.90
2023-05-16T10:01:26.780Z,18.00
2023-05-16T10:03:56.440Z,18.10
2023-05-16T10:06:25.047Z,18.20
2023-05-16T10:08:52.942Z,18.20
2023-05-16T10:11:21.585Z,18.40
2023-05-16T10:13:53.415Z,18.50
2023-05-16T10:16:23.529Z,18.50
2023-05-16T10:18:52.053Z,18.50
2023-05-16T10:21:23.400Z,18.30
2023-05-16T10:23:53.505Z,18.40
2023-05-16T10:26:23.504Z,18.50
2023-05-16T10:28:51.993Z,18.50
2023-05-16T10:31:20.026Z,18.60
2023-05-16T10:33:48.379Z,18.70
2023-05-16T10:36:17.098Z,18.90
2023-05-16T10:38:47.317Z,19.00
2023-05-16T10:41:15.838Z,19.10
2023-05-16T10:43:46.233Z,19.20
2023-05-16T10:46:15.345Z,19.40
2023-05-16T10:48:43.607Z,19.60
2023-05-16T10:51:34.943Z,19.60
2023-05-16T10:54:09.332Z,19.60
2023-05-16T10:56:37.750Z,19.70
2023-05-16T10:59:05.758Z,19.70
2023-05-16T11:01:35.434Z,19.70
2023-05-16T11:04:07.009Z,19.70
2023-05-16T11:06:36.127Z,19.90
2023-05-16T11:09:18.638Z,20.40
2023-05-16T11:11:49.484Z,20.60
2023-05-16T11:14:22.031Z,20.70
2023-05-16T11:16:52.471Z,20.70
2023-05-16T11:19:32.028Z,20.70
2023-05-16T11:22:11.532Z,20.70
2023-05-16T11:24:49.606Z,20.40
2023-05-16T11:27:23.282Z,20.30
2023-05-16T11:29:51.465Z,20.30
2023-05-16T11:32:22.726Z,20.50
2023-05-16T11:34:51.200Z,20.60
2023-05-16T11:37:20.955Z,20.60
2023-05-16T11:39:50.321Z,20.60
2023-05-16T11:42:18.851Z,20.50
2023-05-16T11:44:46.858Z,20.40
2023-05-16T11:47:14.752Z,20.20
2023-05-16T11:49:43.200Z,20.00
2023-05-16T11:52:11.193Z,19.90
2023-05-16T11:54:39.439Z,19.80
2023-05-16T11:57:10.280Z,19.80
2023-05-16T11:59:38.439Z,19.90
2023-05-16T12:02:06.909Z,19.90
2023-05-16T12:04:34.871Z,20.10
2023-05-16T12:07:03.974Z,20.30
2023-05-16T12:09:31.779Z,20.40
2023-05-16T12:11:59.683Z,20.30
2023-05-16T12:14:28.967Z,20.20
2023-05-16T12:16:57.039Z,20.30
2023-05-16T12:19:25.345Z,20.30
2023-05-16T12:21:56.234Z,20.40
2023-05-16T12:24:31.005Z,20.60
2023-05-16T12:26:59.300Z,20.70
2023-05-16T12:29:28.450Z,20.60
2023-05-16T12:31:56.338Z,20.40
2023-05-16T12:34:24.563Z,20.30
2023-05-16T12:36:54.176Z,20.10
2023-05-16T12:39:22.807Z,19.90
2023-05-16T12:41:50.603Z,19.70
2023-05-16T12:44:19.975Z,19.60
2023-05-16T12:46:52.587Z,19.50
2023-05-16T12:49:22.461Z,19.50
2023-05-16T12:51:52.126Z,19.50
2023-05-16T12:54:20.458Z,19.50
2023-05-16T12:56:48.316Z,19.30
2023-05-16T12:59:16.608Z,19.20
2023-05-16T13:01:46.229Z,19.10
2023-05-16T13:04:19.059Z,19.10
2023-05-16T13:06:57.604Z,19.20
2023-05-16T13:09:30.379Z,19.40
2023-05-16T13:12:00.580Z,19.30
2023-05-16T13:14:28.474Z,19.10
2023-05-16T13:16:56.263Z,18.90
2023-05-16T13:19:25.845Z,18.80
2023-05-16T13:21:53.832Z,18.90
2023-05-16T13:24:21.618Z,19.10
2023-05-16T13:26:49.417Z,19.10
2023-05-16T13:29:17.236Z,19.30
2023-05-16T13:31:45.179Z,19.40
2023-05-16T13:34:13.000Z,19.30
2023-05-16T13:39:18.323Z,19.00
2023-05-16T13:41:48.044Z,19.00
2023-05-16T13:44:16.888Z,19.00
2023-05-16T13:46:45.049Z,19.10
2023-05-16T13:49:12.854Z,19.00
2023-05-16T13:51:42.267Z,18.90
2023-05-16T13:54:10.117Z,18.70
2023-05-16T13:56:37.923Z,18.50
2023-05-16T13:59:07.205Z,18.40
2023-05-16T14:01:36.311Z,18.40
2023-05-16T14:04:05.015Z,18.30
2023-05-16T14:06:33.501Z,18.40
2023-05-16T14:09:03.242Z,18.30
2023-05-16T14:11:31.173Z,18.10
2023-05-16T14:13:59.054Z,18.00
2023-05-16T14:16:27.348Z,17.90
2023-05-16T14:18:55.334Z,17.90
2023-05-16T14:21:23.218Z,17.70
2023-05-16T14:23:51.118Z,17.60
2023-05-16T14:26:22.521Z,17.60
2023-05-16T14:28:50.717Z,17.40
2023-05-16T14:31:18.646Z,17.20
2023-05-16T14:33:46.607Z,17.00
2023-05-16T14:36:14.947Z,16.90
2023-05-16T14:38:42.885Z,16.80
2023-05-16T14:41:10.784Z,16.70
2023-05-16T14:43:40.067Z,16.50
2023-05-16T14:46:07.932Z,16.50
2023-05-16T14:48:35.835Z,16.40
2023-05-16T14:51:04.034Z,16.30
2023-05-16T14:53:31.862Z,16.30
2023-05-16T14:56:00.079Z,16.20
2023-05-16T14:58:28.206Z,16.20
2023-05-16T15:00:57.366Z,16.10
2023-05-16T15:03:25.346Z,15.90
2023-05-16T15:05:54.553Z,15.80
2023-05-16T15:08:22.349Z,15.70
2023-05-16T15:10:50.157Z,15.60
2023-05-16T15:13:18.001Z,15.60
2023-05-16T15:15:45.849Z,15.50
2023-05-16T15:18:15.234Z,15.50
2023-05-16T15:20:43.071Z,15.50
2023-05-16T15:23:11.938Z,15.40
2023-05-16T15:25:40.259Z,15.30
2023-05-16T15:28:08.082Z,15.30
2023-05-16T15:30:35.958Z,15.30
2023-05-16T15:33:03.836Z,15.40
2023-05-16T15:35:33.010Z,15.50
2023-05-16T15:38:00.997Z,15.50
2023-05-16T15:40:29.251Z,15.50
2023-05-16T15:42:57.056Z,15.50
2023-05-16T15:45:24.903Z,15.40
2023-05-16T15:47:52.809Z,15.20
2023-05-16T15:50:20.851Z,15.20
2023-05-16T15:52:50.009Z,15.20
2023-05-16T15:55:17.834Z,15.20
2023-05-16T15:57:45.610Z,15.30
2023-05-16T16:00:14.524Z,15.40
2023-05-16T16:02:44.732Z,15.40
2023-05-16T16:05:12.699Z,15.40
2023-05-16T16:07:40.509Z,15.30
2023-05-16T16:10:11.253Z,15.30
2023-05-16T16:12:39.070Z,15.20
2023-05-16T16:15:08.258Z,15.10
2023-05-16T16:17:36.140Z,15.00
2023-05-16T16:20:04.372Z,15.00
2023-05-16T16:22:32.245Z,14.90
2023-05-16T16:25:00.426Z,14.80
2023-05-16T16:27:29.626Z,14.80
2023-05-16T16:29:57.430Z,14.70
2023-05-16T16:32:25.385Z,14.70
2023-05-16T16:34:53.233Z,14.50
2023-05-16T16:37:21.020Z,14.50
2023-05-16T16:39:48.877Z,14.40
2023-05-16T16:42:16.637Z,14.40
2023-05-16T16:44:45.798Z,14.30
2023-05-16T16:47:13.687Z,14.30
2023-05-16T16:49:41.856Z,14.20
2023-05-16T16:52:10.082Z,14.20
2023-05-16T16:54:37.886Z,14.10
2023-05-16T16:57:05.984Z,14.10
2023-05-16T16:59:34.111Z,14.00
2023-05-16T17:02:03.247Z,14.00
2023-05-16T17:04:31.490Z,13.90
2023-05-16T17:06:59.310Z,13.90
2023-05-16T17:09:27.133Z,13.90
2023-05-16T17:11:55.145Z,13.90
2023-05-16T17:14:23.736Z,13.90
2023-05-16T17:16:51.670Z,13.90
2023-05-16T17:19:20.926Z,13.80
2023-05-16T17:21:50.413Z,13.80
2023-05-16T17:24:18.251Z,13.80
2023-05-16T17:26:46.044Z,13.70
2023-05-16T17:29:13.833Z,13.70
2023-05-16T17:31:41.598Z,13.70
2023-05-16T17:34:09.421Z,13.70
2023-05-16T17:36:38.632Z,13.60
2023-05-16T17:39:08.219Z,13.60
2023-05-16T17:41:36.153Z,13.60
2023-05-16T17:44:06.656Z,13.50
2023-05-16T17:46:34.651Z,13.50
2023-05-16T17:49:02.542Z,13.40
2023-05-16T17:51:30.699Z,13.40
2023-05-16T17:53:59.854Z,13.40
2023-05-16T17:56:27.656Z,13.40
2023-05-16T17:58:55.469Z,13.40
2023-05-16T18:01:23.260Z,13.30
2023-05-16T18:03:51.179Z,13.30
2023-05-16T18:06:19.591Z,13.30
2023-05-16T18:08:47.567Z,13.20
2023-05-16T18:11:16.811Z,13.20
2023-05-16T18:13:45.671Z,13.10
2023-05-16T18:16:13.497Z,13.20
2023-05-16T18:18:41.488Z,13.10
2023-05-16T18:21:09.671Z,13.10
2023-05-16T18:23:38.121Z,13.10
2023-05-16T18:26:06.123Z,13.10
2023-05-16T18:28:35.304Z,13.10
2023-05-16T18:31:04.156Z,13.00
2023-05-16T18:33:32.047Z,13.00
2023-05-16T18:35:59.907Z,13.00
2023-05-16T18:38:32.675Z,12.90
2023-05-16T18:41:01.786Z,12.90
2023-05-16T18:43:30.203Z,12.80
2023-05-16T18:45:59.513Z,12.80
2023-05-16T18:48:27.394Z,12.80
2023-05-16T18:50:55.823Z,12.70
2023-05-16T18:53:23.871Z,12.60
2023-05-16T18:55:51.755Z,12.60
2023-05-16T18:58:19.917Z,12.50
2023-05-16T19:00:47.924Z,12.50
2023-05-16T19:03:17.194Z,12.40
2023-05-16T19:05:45.333Z,12.30
2023-05-16T19:08:13.211Z,12.20
2023-05-16T19:10:41.623Z,12.20
2023-05-16T19:13:09.554Z,12.20
2023-05-16T19:15:38.173Z,12.10
2023-05-16T19:18:06.782Z,12.10
2023-05-16T19:20:37.390Z,12.00
2023-05-16T19:23:05.407Z,11.90
2023-05-16T19:25:33.326Z,11.90
2023-05-16T19:28:01.126Z,11.80
2023-05-16T19:30:29.242Z,11.80
2023-05-16T19:32:57.173Z,11.70
2023-05-16T19:35:25.263Z,11.60
2023-05-16T19:37:54.545Z,11.50
2023-05-16T19:40:22.453Z,11.50
2023-05-16T19:42:50.490Z,11.40
2023-05-16T19:45:18.302Z,11.40
2023-05-16T19:47:46.227Z,11.30
2023-05-16T19:50:14.192Z,11.30
2023-05-16T19:52:42.016Z,11.30
2023-05-16T19:55:11.321Z,11.20
2023-05-16T19:57:39.171Z,11.20
2023-05-16T20:00:09.441Z,11.20
2023-05-16T20:02:37.401Z,11.10
2023-05-16T20:05:06.474Z,11.10
2023-05-16T20:07:34.289Z,11.10
2023-05-16T20:10:02.093Z,11.10
2023-05-16T20:12:31.238Z,11.00
2023-05-16T20:14:59.177Z,11.00
2023-05-16T20:17:27.371Z,10.90
2023-05-16T20:19:55.408Z,10.90
2023-05-16T20:22:23.272Z,10.90
2023-05-16T20:24:51.047Z,10.90
2023-05-16T20:27:19.145Z,10.90
2023-05-16T20:29:49.273Z,11.00
2023-05-16T20:32:17.122Z,10.90
2023-05-16T20:34:44.904Z,10.90
2023-05-16T20:37:12.682Z,10.90
2023-05-16T20:39:40.638Z,10.80
2023-05-16T20:42:10.728Z,10.80
2023-05-16T20:44:38.690Z,10.80
2023-05-16T20:47:08.770Z,10.80
2023-05-16T20:49:37.639Z,10.80
2023-05-16T20:52:05.991Z,10.70
2023-05-16T20:54:36.688Z,10.60
2023-05-16T20:57:04.856Z,10.60
2023-05-16T20:59:32.734Z,10.50
2023-05-16T21:02:00.609Z,10.50
2023-05-16T21:04:29.803Z,10.50
2023-05-16T21:06:57.744Z,10.50
2023-05-16T21:09:25.555Z,10.50
2023-05-16T21:11:53.418Z,10.40
2023-05-16T21:14:21.205Z,10.30
2023-05-16T21:16:49.011Z,10.30
2023-05-16T21:19:16.946Z,10.20
2023-05-16T21:21:46.250Z,10.20
2023-05-16T21:24:14.102Z,10.20
2023-05-16T21:26:41.904Z,10.20
2023-05-16T21:29:09.765Z,10.20
2023-05-16T21:31:37.562Z,10.20
2023-05-16T21:34:05.661Z,10.10
2023-05-16T21:36:33.506Z,10.10
2023-05-16T21:39:02.644Z,10.00
2023-05-16T21:41:30.497Z,10.00
2023-05-16T21:43:58.343Z,9.90
2023-05-16T21:46:26.227Z,9.90
2023-05-16T21:48:54.058Z,9.90
2023-05-16T21:51:21.925Z,9.80
2023-05-16T21:53:49.759Z,9.80
2023-05-16T21:56:18.968Z,9.80
2023-05-16T21:58:46.850Z,9.70
2023-05-16T22:01:14.881Z,9.70
2023-05-16T22:03:42.861Z,9.80
2023-05-16T22:06:10.786Z,9.80
2023-05-16T22:08:38.563Z,9.70
2023-05-16T22:11:06.614Z,9.80
2023-05-16T22:13:35.834Z,9.70
2023-05-16T22:16:05.449Z,9.80
2023-05-16T22:18:34.008Z,9.70
2023-05-16T22:21:02.101Z,9.70
2023-05-16T22:23:30.027Z,9.70
2023-05-16T22:25:57.826Z,9.70
2023-05-16T22:28:26.110Z,9.70
2023-05-16T22:30:55.290Z,9.70
2023-05-16T22:33:25.705Z,9.70
2023-05-16T22:35:53.833Z,9.60
2023-05-16T22:38:21.637Z,9.60
2023-05-16T22:40:49.495Z,9.60
2023-05-16T22:43:17.387Z,9.60
2023-05-16T22:45:45.437Z,9.60
2023-05-16T22:48:14.740Z,9.60
2023-05-16T22:50:42.634Z,9.50
2023-05-16T22:53:10.470Z,9.50
2023-05-16T22:55:38.799Z,9.50
2023-05-16T22:58:06.896Z,9.50
2023-05-16T23:00:34.739Z,9.40
2023-05-16T23:03:02.617Z,9.40
2023-05-16T23:05:32.311Z,9.40
2023-05-16T23:08:00.227Z,9.30
2023-05-16T23:10:28.041Z,9.30
2023-05-16T23:12:56.072Z,9.40
2023-05-16T23:15:24.060Z,9.30
2023-05-16T23:17:51.914Z,9.30
2023-05-16T23:20:19.976Z,9.20
2023-05-16T23:22:49.188Z,9.20
2023-05-16T23:25:17.024Z,9.10
2023-05-16T23:27:44.830Z,9.20
2023-05-16T23:30:13.286Z,9.10
2023-05-16T23:32:41.140Z,9.10
2023-05-16T23:35:09.461Z,9.10
2023-05-16T23:37:37.264Z,9.00
2023-05-16T23:40:07.894Z,9.00
2023-05-16T23:42:36.628Z,9.00
2023-05-16T23:45:04.912Z,9.10
2023-05-16T23:47:32.769Z,8.90
2023-05-16T23:50:00.665Z,9.00
2023-05-16T23:52:28.562Z,8.90
2023-05-16T23:54:56.363Z,8.90
2023-05-16T23:57:34.601Z,8.90
